createdAt,value
2022-10-19T00:01:51.131Z,12.3
2022-10-19T00:07:03.320Z,12.26
2022-10-19T00:12:15.792Z,12.24
2022-10-19T00:17:28.133Z,12.21
2022-10-19T00:22:40.632Z,12.22
2022-10-19T00:27:53.255Z,12.2
2022-10-19T00:33:05.434Z,12.17
2022-10-19T00:38:17.811Z,12.13
2022-10-19T06:51:43.549Z,12.15
2022-10-19T06:56:55.707Z,11.98
2022-10-19T07:02:08.128Z,11.9
2022-10-19T07:07:20.495Z,11.94
2022-10-19T07:12:32.893Z,11.92
2022-10-19T07:17:45.089Z,12
2022-10-19T07:22:57.478Z,12.05
2022-10-19T07:28:09.850Z,12.1
2022-10-19T07:33:22.157Z,12.12
2022-10-19T07:38:34.435Z,12.23
2022-10-19T07:43:46.680Z,12.26
2022-10-19T07:48:59.011Z,12.24
2022-10-19T07:54:11.630Z,12.32
2022-10-19T07:59:23.988Z,12.42
2022-10-19T08:04:59.333Z,12.45
2022-10-19T08:09:53.058Z,12.53
2022-10-19T08:15:01.064Z,12.63
2022-10-19T08:20:13.597Z,12.7
2022-10-19T08:25:25.814Z,12.69
2022-10-19T08:30:38.089Z,12.68
2022-10-19T08:35:50.664Z,12.76
2022-10-19T08:41:02.859Z,12.79
2022-10-19T08:46:15.322Z,12.84
2022-10-19T08:51:28.026Z,12.97
2022-10-19T08:56:54.755Z,13.05
2022-10-19T09:01:53.003Z,13.2
2022-10-19T09:07:05.519Z,13.25
2022-10-19T09:12:17.986Z,13.29
2022-10-19T09:17:30.363Z,13.39
2022-10-19T09:22:42.799Z,13.48
2022-10-19T09:27:55.314Z,13.64
2022-10-19T09:33:08.443Z,13.81
2022-10-19T09:38:20.794Z,14.1
2022-10-19T09:43:33.265Z,14.49
2022-10-19T09:48:45.557Z,14.73
2022-10-19T09:53:58.123Z,14.85
2022-10-19T09:59:10.572Z,14.89
2022-10-19T10:04:22.929Z,14.8
2022-10-19T10:09:35.138Z,14.72
2022-10-19T10:14:47.661Z,14.78
2022-10-19T10:20:00.188Z,14.85
2022-10-19T10:25:12.536Z,14.93
2022-10-19T10:30:24.860Z,15.09
2022-10-19T10:35:37.348Z,15.15
2022-10-19T10:40:49.709Z,15.15
2022-10-19T10:46:01.880Z,15.18
2022-10-19T10:51:14.236Z,15.57
2022-10-19T10:56:26.647Z,16.13
2022-10-19T11:01:39.361Z,16.39
2022-10-19T11:06:51.658Z,16.47
2022-10-19T11:12:04.172Z,16.48
2022-10-19T11:17:16.599Z,16.48
2022-10-19T11:22:28.699Z,16.39
2022-10-19T11:27:41.333Z,16.27
2022-10-19T11:32:54.090Z,16.39
2022-10-19T11:38:19.384Z,16.62
2022-10-19T11:43:19.629Z,17.32
2022-10-19T11:48:31.803Z,18.2
2022-10-19T11:53:44.498Z,18.83
2022-10-19T11:58:56.917Z,18.87
2022-10-19T12:04:09.296Z,18.72
2022-10-19T12:09:22.059Z,18.49
2022-10-19T12:14:34.283Z,18.29
2022-10-19T12:19:46.738Z,18.65
2022-10-19T12:24:59.166Z,19.14
2022-10-19T12:30:11.415Z,19.18
2022-10-19T12:35:23.746Z,18.9
2022-10-19T12:40:35.910Z,18.56
2022-10-19T12:45:48.020Z,18.28
2022-10-19T12:51:00.690Z,18.25
2022-10-19T12:56:13.984Z,18.17
2022-10-19T13:01:26.885Z,18.74
2022-10-19T13:06:39.677Z,19.51
2022-10-19T13:11:52.019Z,19.57
2022-10-19T13:17:04.200Z,19.43
2022-10-19T13:22:16.661Z,19.75
2022-10-19T13:27:29.247Z,20.4
2022-10-19T13:32:41.783Z,21.19
2022-10-19T13:37:54.312Z,21.89
2022-10-19T13:43:06.907Z,22.49
2022-10-19T13:48:19.459Z,23.01
2022-10-19T13:53:31.985Z,23.45
2022-10-19T13:58:44.385Z,23.68
2022-10-19T14:03:56.660Z,23.82
2022-10-19T14:09:09.136Z,24.01
2022-10-19T14:14:21.455Z,24.42
2022-10-19T14:19:33.926Z,24.82
2022-10-19T14:24:46.384Z,25.1
2022-10-19T14:29:58.794Z,25.35
2022-10-19T14:35:10.967Z,25.51
2022-10-19T14:40:24.917Z,25.68
2022-10-19T14:45:35.741Z,25.93
2022-10-19T14:50:48.062Z,26.1
2022-10-19T14:56:00.498Z,26.15
2022-10-19T15:01:12.977Z,25.86
2022-10-19T15:06:25.159Z,25.81
2022-10-19T15:11:37.706Z,25.77
2022-10-19T15:16:50.013Z,25.58
2022-10-19T15:22:02.364Z,25.46
2022-10-19T15:27:16.501Z,25.16
2022-10-19T15:32:28.713Z,24.78
2022-10-19T15:37:40.917Z,24.25
2022-10-19T15:42:53.065Z,23.56
2022-10-19T15:48:05.055Z,22.79
2022-10-19T15:53:17.445Z,21.85
2022-10-19T15:58:29.437Z,21
2022-10-19T16:03:41.516Z,20.31
2022-10-19T16:08:53.737Z,19.82
2022-10-19T16:14:06.063Z,19.36
2022-10-19T16:19:18.795Z,18.92
2022-10-19T16:24:30.810Z,18.6
2022-10-19T16:29:43.272Z,18.36
2022-10-19T16:34:56.179Z,18.11
2022-10-19T16:40:08.398Z,17.83
2022-10-19T16:45:20.632Z,17.6
2022-10-19T16:50:33.114Z,17.41
2022-10-19T16:55:45.670Z,17.27
2022-10-19T17:00:58.034Z,17.1
2022-10-19T17:06:10.211Z,16.88
2022-10-19T17:11:22.555Z,16.68
2022-10-19T17:16:34.813Z,16.49
2022-10-19T17:21:48.272Z,16.33
2022-10-19T17:26:59.198Z,16.16
2022-10-19T17:32:11.522Z,16.03
2022-10-19T17:37:23.876Z,15.96
2022-10-19T17:42:36.192Z,15.94
2022-10-19T17:47:48.642Z,15.92
2022-10-19T17:53:01.152Z,15.9
2022-10-19T17:58:13.571Z,15.77
2022-10-19T18:03:25.809Z,15.57
2022-10-19T18:08:38.226Z,15.42
2022-10-19T18:13:50.673Z,15.3
2022-10-19T18:19:02.809Z,15.22
2022-10-19T18:24:15.563Z,15.19
2022-10-19T18:29:27.487Z,15.14
2022-10-19T18:34:39.737Z,15.08
2022-10-19T18:39:52.152Z,15.03
2022-10-19T18:45:04.639Z,15.03
2022-10-19T18:50:17.085Z,15.07
2022-10-19T18:55:29.510Z,15.08
2022-10-19T19:00:43.330Z,15.05
2022-10-19T19:05:54.377Z,15.01
2022-10-19T19:11:06.721Z,14.91
2022-10-19T19:16:19.024Z,14.76
2022-10-19T19:21:31.497Z,14.63
2022-10-19T19:26:43.670Z,14.49
2022-10-19T19:31:56.015Z,14.41
2022-10-19T19:37:08.951Z,14.26
2022-10-19T19:42:22.320Z,14.02
2022-10-19T19:47:33.191Z,13.77
2022-10-19T19:52:45.209Z,13.57
2022-10-19T19:57:57.708Z,13.4
2022-10-19T20:03:09.951Z,13.24
2022-10-19T20:08:22.185Z,12.93
2022-10-19T20:13:34.365Z,12.68
2022-10-19T20:18:46.918Z,12.57
2022-10-19T20:23:59.015Z,12.43
2022-10-19T20:29:11.369Z,12.31
2022-10-19T20:34:24.081Z,12.32
2022-10-19T20:39:36.238Z,12.26
2022-10-19T20:44:48.720Z,12.23
2022-10-19T20:50:00.861Z,12.14
2022-10-19T20:55:13.306Z,11.98
2022-10-19T21:00:25.520Z,11.95
2022-10-19T21:05:37.940Z,11.9
2022-10-19T21:10:50.378Z,11.78
2022-10-19T21:16:02.677Z,11.66
2022-10-19T21:21:15.076Z,11.53
2022-10-19T21:26:27.365Z,11.46
2022-10-19T21:31:40.343Z,11.38
2022-10-19T21:36:52.220Z,11.28
2022-10-19T21:42:04.481Z,11.1
2022-10-19T21:47:16.896Z,10.97
2022-10-19T21:52:29.448Z,10.93
2022-10-19T21:57:41.795Z,10.8
2022-10-19T22:02:54.051Z,10.66
2022-10-19T22:08:06.463Z,10.6
2022-10-19T22:13:18.907Z,10.54
2022-10-19T22:18:31.352Z,10.47
2022-10-19T22:23:43.686Z,10.39
2022-10-19T22:28:56.043Z,10.35
2022-10-19T22:34:08.457Z,10.32
2022-10-19T22:39:20.913Z,10.24
2022-10-19T22:44:33.398Z,10.12
2022-10-19T22:49:46.226Z,10.05
2022-10-19T22:54:58.619Z,10.04
2022-10-19T23:00:11.064Z,10.04
2022-10-19T23:05:23.315Z,10.01
2022-10-19T23:10:35.824Z,10.03
2022-10-19T23:15:48.019Z,10.02
2022-10-19T23:21:00.470Z,10.02
2022-10-19T23:26:12.903Z,9.9
2022-10-19T23:31:25.356Z,9.86
2022-10-19T23:36:37.660Z,9.79
2022-10-19T23:41:49.971Z,9.65
2022-10-19T23:47:02.506Z,9.59
2022-10-19T23:52:15.044Z,9.5
2022-10-19T23:57:27.306Z,9.42
